Daytona Beach International, FL

12:39 AM EDT on September 17, 2014 (GMT -0400)
Ormond Beach Municipal | Change Station
CLOSE
Current Station
Airport
Location: Ormond Beach,
Elevation: 30 ft
Nearby Weather Stations

Elev 30 ft 29.30 °N, 81.11 °W | Updated 5 hours ago

Overcast
Overcast
73 °F
Feels Like 73 °F
N
9
Wind Variable Wind from WSW

Today
High -- | Low -- °F
--% Chance of Precip.
Yesterday
High -- | Low -- °F
Precip. -- in
7:10 AM 7:26 PM
Last Quarter, 39% visible
Pressure 29.99 in
Visibility 7.0 miles
Clouds Scattered Clouds 2000 ft
Dew Point 72 °F
Humidity 94%
Rainfall 0.00 in
Snow Depth Not available.
UV 0 out of 12
Pollen 7.60 out of 12
Air Quality Not available.
Flu Activity Not available.
METAR KOMN 162250Z 25008KT 7SM SCT020 23/22 A2999 RMK LAST

More Conditions Fewer Conditions

Pressure 29.99 in
Visibility 7.0 miles
Clouds Scattered Clouds 2000 ft
Dew Point 72 °F
Humidity 94%
Rainfall 0.00 in
Snow Depth Not available.
UV 0 out of 12
Pollen 7.60 out of 12
Air Quality Not available.
Flu Activity Not available.
METAR KOMN 162250Z 25008KT 7SM SCT020 23/22 A2999 RMK LAST

More Conditions Fewer Conditions

10-Day Weather Forecast

Almanac

Astronomy

Sep. 17, 2014 Rise Set
Actual Time 7:10 AM EDT 7:26 PM EDT
Civil Twilight 6:46 AM EDT 7:50 PM EDT
Nautical Twilight 6:18 AM EDT 8:18 PM EDT
Astronomical Twilight 5:50 AM EDT 8:46 PM EDT
Moon 1:28 AM EDT 3:16 PM EDT
Length of Visible Light 13h 04m
Length of Day
12h 16m
Tomorrow will be 1m 45s shorter.
Last Quarter, 39% of the Moon is Illuminated
Today
Last Quarter
Sep 24
New
Oct 1
First Quarter
Oct 8
Full
Oct 15
Last Quarter

Today's Extremes

State Highs State Lows

Community

WunderPhotos

Upload Photos

1,753,965 photos uploaded!

Nearby

Snow Depth

Station Depth Elevation
No new snow has been reported.

Earthquake Activity

City Distance Mag. Time & Date
No recent earthquake activity has been reported nearby.
Minimum magnitude displayed is 2.5.

Coastal Water Temperatures

Place Temperature
Trident Pier, FL 86.0 °F
Mayport (Bar Pilots Dock), FL 84.0 °F
Fernandina Beach, FL 84.9 °F

Nearby Weather Stations